createdAt,value
2018-12-10T00:01:01.961Z,5.75
2018-12-10T00:03:35.296Z,5.80
2018-12-10T00:06:03.205Z,5.83
2018-12-10T00:08:31.012Z,5.89
2018-12-10T00:10:58.784Z,5.92
2018-12-10T00:13:26.597Z,5.94
2018-12-10T00:15:54.383Z,5.99
2018-12-10T00:18:22.144Z,6.05
2018-12-10T00:20:49.893Z,6.09
2018-12-10T00:23:17.767Z,6.08
2018-12-10T00:25:45.533Z,6.23
2018-12-10T00:28:13.288Z,6.32
2018-12-10T00:30:41.038Z,6.27
2018-12-10T00:33:08.850Z,6.26
2018-12-10T00:35:36.626Z,6.32
2018-12-10T00:38:04.409Z,6.36
2018-12-10T00:40:32.154Z,6.43
2018-12-10T00:42:59.925Z,6.50
2018-12-10T00:45:27.712Z,6.55
2018-12-10T00:47:55.473Z,6.64
2018-12-10T00:50:23.258Z,6.68
2018-12-10T00:52:50.980Z,6.78
2018-12-10T00:55:18.761Z,6.85
2018-12-10T00:57:46.505Z,6.83
2018-12-10T01:00:14.266Z,6.46
2018-12-10T01:02:42.082Z,6.10
2018-12-10T01:05:09.847Z,6.08
2018-12-10T01:07:38.592Z,6.03
2018-12-10T01:10:06.575Z,6.03
2018-12-10T01:12:35.348Z,6.09
2018-12-10T01:15:03.257Z,6.09
2018-12-10T01:17:31.009Z,6.09
2018-12-10T01:19:58.790Z,6.07
2018-12-10T01:22:26.501Z,6.09
2018-12-10T01:24:54.237Z,6.09
2018-12-10T01:27:22.056Z,6.12
2018-12-10T01:29:49.806Z,6.18
2018-12-10T01:32:17.630Z,6.18
2018-12-10T01:34:46.163Z,6.29
2018-12-10T01:37:13.939Z,6.28
2018-12-10T01:39:41.739Z,6.33
2018-12-10T01:42:09.528Z,6.34
2018-12-10T01:44:37.334Z,6.40
2018-12-10T01:47:05.180Z,6.45
2018-12-10T01:49:32.954Z,6.48
2018-12-10T01:52:00.680Z,6.49
2018-12-10T01:54:28.464Z,6.47
2018-12-10T01:56:56.261Z,6.53
2018-12-10T01:59:23.971Z,6.45
2018-12-10T02:01:51.738Z,6.41
2018-12-10T02:04:19.521Z,6.41
2018-12-10T02:06:47.270Z,6.36
2018-12-10T02:09:15.008Z,6.39
2018-12-10T02:11:42.741Z,6.37
2018-12-10T02:14:10.470Z,6.40
2018-12-10T02:16:38.222Z,6.41
2018-12-10T02:19:06.056Z,6.40
2018-12-10T02:21:33.808Z,6.38
2018-12-10T02:24:01.593Z,6.46
2018-12-10T02:26:29.311Z,6.52
2018-12-10T02:29:02.765Z,6.60
2018-12-10T02:31:30.593Z,6.66
2018-12-10T02:33:58.325Z,6.60
2018-12-10T02:36:26.098Z,6.57
2018-12-10T02:38:53.802Z,6.69
2018-12-10T02:41:21.540Z,6.45
2018-12-10T02:43:49.258Z,6.27
2018-12-10T02:46:17.187Z,6.24
2018-12-10T02:48:45.137Z,6.28
2018-12-10T02:51:13.165Z,6.21
2018-12-10T02:53:40.930Z,6.14
2018-12-10T02:56:08.698Z,6.27
2018-12-10T02:58:36.449Z,6.23
2018-12-10T03:01:04.289Z,6.23
2018-12-10T03:03:32.089Z,6.22
2018-12-10T03:05:59.842Z,6.32
2018-12-10T03:08:27.654Z,6.28
2018-12-10T03:10:55.395Z,6.28
2018-12-10T03:13:23.206Z,6.31
2018-12-10T03:15:50.933Z,6.34
2018-12-10T03:18:18.701Z,6.37
2018-12-10T03:20:46.472Z,6.45
2018-12-10T03:23:14.251Z,6.36
2018-12-10T03:25:42.010Z,6.34
2018-12-10T03:28:09.755Z,6.37
2018-12-10T03:30:37.577Z,6.36
2018-12-10T03:33:05.347Z,6.40
2018-12-10T03:35:33.089Z,6.41
2018-12-10T03:38:00.868Z,6.44
2018-12-10T03:40:29.885Z,6.44
2018-12-10T03:42:57.665Z,6.50
2018-12-10T03:45:25.528Z,6.46
2018-12-10T03:47:53.268Z,6.39
2018-12-10T03:50:21.027Z,6.51
2018-12-10T03:52:48.774Z,6.52
2018-12-10T03:55:16.541Z,6.56
2018-12-10T03:57:44.329Z,6.52
2018-12-10T04:00:12.230Z,6.43
2018-12-10T04:02:40.058Z,6.46
2018-12-10T04:05:07.871Z,6.38
2018-12-10T04:07:35.641Z,6.43
2018-12-10T04:10:03.756Z,6.41
2018-12-10T04:12:31.491Z,6.42
2018-12-10T04:14:59.276Z,6.39
2018-12-10T04:17:27.205Z,6.38
2018-12-10T04:19:54.964Z,6.34
2018-12-10T04:22:22.735Z,6.38
2018-12-10T04:24:50.510Z,6.38
2018-12-10T04:27:18.341Z,6.38
2018-12-10T04:29:46.125Z,6.45
2018-12-10T04:32:13.900Z,6.40
2018-12-10T04:34:41.677Z,6.35
2018-12-10T04:37:10.169Z,6.37
2018-12-10T04:39:37.948Z,6.37
2018-12-10T04:42:05.730Z,6.37
2018-12-10T04:44:33.483Z,6.34
2018-12-10T04:47:01.236Z,6.31
2018-12-10T04:49:28.995Z,6.39
2018-12-10T04:51:56.778Z,6.35
2018-12-10T04:54:24.666Z,6.35
2018-12-10T04:56:52.496Z,6.39
2018-12-10T04:59:20.563Z,6.40
2018-12-10T05:01:48.468Z,6.35
2018-12-10T05:04:16.240Z,6.35
2018-12-10T05:06:44.045Z,6.42
2018-12-10T05:09:12.442Z,6.43
2018-12-10T05:11:40.245Z,6.47
2018-12-10T05:14:08.047Z,6.54
2018-12-10T05:16:35.797Z,6.57
2018-12-10T05:22:49.715Z,6.61
2018-12-10T05:25:18.501Z,6.55
2018-12-10T05:27:46.246Z,6.45
2018-12-10T05:30:14.002Z,6.38
2018-12-10T05:32:41.823Z,6.31
2018-12-10T05:35:09.608Z,6.35
2018-12-10T05:37:37.353Z,6.33
2018-12-10T05:40:05.444Z,6.29
2018-12-10T05:42:33.234Z,6.23
2018-12-10T05:45:01.192Z,6.22
2018-12-10T05:47:28.904Z,6.25
2018-12-10T05:49:57.268Z,6.25
2018-12-10T05:52:25.011Z,6.26
2018-12-10T05:54:52.754Z,6.24
2018-12-10T05:57:20.561Z,6.24
2018-12-10T05:59:48.353Z,6.28
2018-12-10T06:02:16.082Z,6.32
2018-12-10T06:04:43.958Z,6.39
2018-12-10T06:07:11.706Z,6.35
2018-12-10T06:09:39.466Z,6.26
2018-12-10T06:12:07.389Z,6.10
2018-12-10T06:14:35.197Z,5.97
2018-12-10T06:17:03.091Z,5.92
2018-12-10T06:19:30.853Z,5.89
2018-12-10T06:21:58.616Z,5.91
2018-12-10T06:24:26.419Z,5.92
2018-12-10T06:26:54.135Z,5.87
2018-12-10T06:29:21.893Z,5.87
2018-12-10T06:31:49.626Z,5.92
2018-12-10T06:34:17.367Z,5.93
2018-12-10T06:36:45.087Z,5.95
2018-12-10T06:39:12.844Z,5.93
2018-12-10T06:41:40.681Z,6.04
2018-12-10T06:44:08.425Z,6.08
2018-12-10T06:46:36.198Z,6.08
2018-12-10T06:49:03.954Z,6.06
2018-12-10T06:51:31.712Z,6.15
2018-12-10T06:53:59.502Z,6.21
2018-12-10T06:56:27.248Z,6.25
2018-12-10T06:58:55.088Z,6.15
2018-12-10T07:01:22.867Z,6.00
2018-12-10T07:03:53.966Z,5.82
2018-12-10T07:06:21.710Z,5.69
2018-12-10T07:08:50.751Z,5.70
2018-12-10T07:11:18.474Z,5.80
2018-12-10T07:13:46.263Z,5.70
2018-12-10T07:16:14.042Z,5.80
2018-12-10T07:18:42.484Z,5.73
2018-12-10T07:21:10.373Z,5.64
2018-12-10T07:23:38.230Z,5.78
2018-12-10T07:26:06.041Z,5.76
2018-12-10T07:28:33.780Z,5.72
2018-12-10T07:31:01.548Z,5.45
2018-12-10T07:33:29.317Z,5.34
2018-12-10T07:35:57.099Z,5.23
2018-12-10T07:38:24.893Z,5.13
2018-12-10T07:40:52.657Z,4.97
2018-12-10T07:43:20.419Z,5.02
2018-12-10T07:45:48.220Z,5.07
2018-12-10T07:48:15.997Z,5.07
2018-12-10T07:50:43.807Z,5.12
2018-12-10T07:53:11.597Z,5.13
2018-12-10T07:55:39.332Z,5.15
2018-12-10T07:58:07.228Z,5.19
2018-12-10T08:00:35.050Z,5.18
2018-12-10T08:03:02.836Z,5.12
2018-12-10T08:05:30.597Z,5.14
2018-12-10T08:07:58.365Z,5.15
2018-12-10T08:10:26.098Z,5.25
2018-12-10T08:12:53.846Z,5.31
2018-12-10T08:15:21.633Z,5.38
2018-12-10T08:17:49.446Z,5.46
2018-12-10T08:20:17.240Z,5.53
2018-12-10T08:22:45.161Z,5.54
2018-12-10T08:25:13.029Z,5.60
2018-12-10T08:27:40.808Z,5.70
2018-12-10T08:30:08.872Z,5.83
2018-12-10T08:32:36.686Z,5.93
2018-12-10T08:35:04.673Z,5.95
2018-12-10T08:37:32.460Z,6.00
2018-12-10T08:40:00.225Z,5.99
2018-12-10T08:42:28.042Z,6.00
2018-12-10T08:44:55.845Z,5.95
2018-12-10T08:47:23.644Z,5.98
2018-12-10T08:49:51.447Z,6.05
2018-12-10T08:52:19.233Z,6.13
2018-12-10T08:54:47.096Z,6.27
2018-12-10T08:57:14.941Z,6.31
2018-12-10T08:59:42.917Z,6.38
2018-12-10T09:02:10.669Z,6.50
2018-12-10T09:04:38.589Z,6.58
2018-12-10T09:07:06.412Z,6.60
2018-12-10T09:09:34.190Z,6.65
2018-12-10T09:12:02.107Z,6.57
2018-12-10T09:14:29.929Z,6.59
2018-12-10T09:16:57.738Z,6.53
2018-12-10T09:19:25.587Z,6.53
2018-12-10T09:21:54.067Z,6.25
2018-12-10T09:24:21.865Z,6.26
2018-12-10T09:26:49.826Z,6.34
2018-12-10T09:29:17.637Z,6.40
2018-12-10T09:31:45.438Z,6.23
2018-12-10T09:34:13.232Z,5.92
2018-12-10T09:36:40.984Z,5.87
2018-12-10T09:39:08.841Z,5.99
2018-12-10T09:41:36.579Z,5.83
2018-12-10T09:44:04.401Z,5.92
2018-12-10T09:46:32.127Z,5.95
2018-12-10T09:48:59.973Z,5.92
2018-12-10T09:51:27.741Z,5.94
2018-12-10T09:53:55.485Z,5.99
2018-12-10T09:56:23.348Z,6.01
2018-12-10T09:58:51.108Z,6.07
2018-12-10T10:01:18.891Z,6.05
2018-12-10T10:03:46.646Z,6.09
2018-12-10T10:06:14.473Z,6.17
2018-12-10T10:08:42.393Z,6.23
2018-12-10T10:11:10.178Z,6.29
2018-12-10T10:13:37.933Z,6.36
2018-12-10T10:16:05.850Z,6.52
2018-12-10T10:18:33.673Z,6.23
2018-12-10T10:21:01.441Z,6.00
2018-12-10T10:23:29.174Z,5.87
2018-12-10T10:25:56.951Z,5.87
2018-12-10T10:28:24.769Z,5.85
2018-12-10T10:30:52.640Z,5.89
2018-12-10T10:33:20.438Z,5.85
2018-12-10T10:35:48.238Z,5.90
2018-12-10T10:38:16.026Z,5.99
2018-12-10T10:40:44.756Z,6.09
2018-12-10T10:43:12.606Z,6.15
2018-12-10T10:45:40.526Z,6.25
2018-12-10T10:48:08.334Z,6.33
2018-12-10T10:50:36.072Z,6.52
2018-12-10T10:53:03.929Z,6.55
2018-12-10T10:55:34.513Z,6.44
2018-12-10T10:58:02.420Z,6.44
2018-12-10T11:00:35.892Z,6.50
2018-12-10T11:03:07.547Z,6.56
2018-12-10T11:05:35.289Z,6.62
2018-12-10T11:08:03.166Z,6.60
2018-12-10T11:10:30.920Z,6.53
2018-12-10T11:12:58.663Z,6.50
2018-12-10T11:15:26.375Z,6.49
2018-12-10T11:17:54.266Z,6.56
2018-12-10T11:20:22.212Z,6.67
2018-12-10T11:22:52.053Z,6.75
2018-12-10T11:25:19.794Z,6.92
2018-12-10T11:27:47.673Z,7.10
2018-12-10T11:30:15.531Z,7.19
2018-12-10T11:32:45.492Z,7.28
2018-12-10T11:35:13.332Z,7.30
2018-12-10T11:37:41.135Z,7.23
2018-12-10T11:40:09.027Z,7.12
2018-12-10T11:42:36.845Z,7.12
2018-12-10T11:45:05.049Z,7.10
2018-12-10T11:47:32.849Z,7.09
2018-12-10T11:50:00.630Z,7.12
2018-12-10T11:52:28.418Z,7.04
2018-12-10T11:54:56.152Z,7.13
2018-12-10T11:57:23.976Z,7.31
2018-12-10T11:59:51.701Z,7.40
2018-12-10T12:02:19.548Z,7.47
2018-12-10T12:04:47.345Z,7.59
2018-12-10T12:07:15.049Z,7.39
2018-12-10T12:09:42.864Z,7.36
2018-12-10T12:12:10.645Z,7.24
2018-12-10T12:14:38.406Z,7.25
2018-12-10T12:17:06.161Z,7.24
2018-12-10T12:19:34.071Z,7.24
2018-12-10T12:22:05.198Z,7.13
2018-12-10T12:24:34.605Z,7.22
2018-12-10T12:27:02.366Z,7.36
2018-12-10T12:29:30.133Z,7.50
2018-12-10T12:31:57.932Z,7.53
2018-12-10T12:34:26.229Z,7.42
2018-12-10T12:36:54.054Z,7.39
2018-12-10T12:39:22.020Z,7.30
2018-12-10T12:41:49.793Z,7.32
2018-12-10T12:44:17.580Z,7.40
2018-12-10T12:46:45.358Z,7.40
2018-12-10T12:49:13.061Z,7.42
2018-12-10T12:51:41.173Z,7.39
2018-12-10T12:54:08.988Z,7.41
2018-12-10T12:56:36.857Z,7.49
2018-12-10T12:59:04.672Z,7.51
2018-12-10T13:01:32.465Z,7.53
2018-12-10T13:04:00.274Z,7.54
2018-12-10T13:06:28.101Z,7.50
2018-12-10T13:08:55.882Z,7.52
2018-12-10T13:11:23.651Z,7.55
2018-12-10T13:13:51.395Z,7.56
2018-12-10T13:16:19.149Z,7.51
2018-12-10T13:18:47.298Z,7.54
2018-12-10T13:21:15.040Z,7.55
2018-12-10T13:23:43.029Z,7.57
2018-12-10T13:26:10.850Z,7.58
2018-12-10T13:28:38.649Z,7.62
2018-12-10T13:31:06.455Z,7.62
2018-12-10T13:33:34.250Z,7.71
2018-12-10T13:36:02.124Z,7.53
2018-12-10T13:38:29.949Z,7.31
2018-12-10T13:40:57.795Z,7.23
2018-12-10T13:43:25.595Z,7.13
2018-12-10T13:45:53.387Z,7.26
2018-12-10T13:48:21.317Z,7.27
2018-12-10T13:50:49.071Z,7.24
2018-12-10T13:53:16.973Z,7.34
2018-12-10T13:55:44.790Z,7.33
2018-12-10T13:58:12.670Z,7.28
2018-12-10T14:00:40.534Z,7.14
2018-12-10T14:03:08.302Z,6.84
2018-12-10T14:05:36.224Z,6.31
2018-12-10T14:08:04.169Z,6.09
2018-12-10T14:10:31.937Z,5.87
2018-12-10T14:12:59.774Z,5.81
2018-12-10T14:15:27.549Z,5.78
2018-12-10T14:17:55.281Z,5.88
2018-12-10T14:20:23.471Z,5.91
2018-12-10T14:22:51.989Z,5.87
2018-12-10T14:25:23.308Z,5.87
2018-12-10T14:27:51.323Z,5.83
2018-12-10T14:30:19.303Z,5.77
2018-12-10T14:32:47.144Z,5.74
2018-12-10T14:35:14.899Z,5.69
2018-12-10T14:37:42.640Z,5.78
2018-12-10T14:40:10.455Z,5.80
2018-12-10T14:42:50.844Z,5.76
2018-12-10T14:45:18.746Z,5.89
2018-12-10T14:48:05.606Z,5.97
2018-12-10T14:50:33.351Z,6.03
2018-12-10T14:53:01.103Z,6.15
2018-12-10T14:55:28.981Z,6.23
2018-12-10T14:57:56.875Z,6.30
2018-12-10T15:00:24.650Z,6.41
2018-12-10T15:02:52.418Z,6.53
2018-12-10T15:05:20.137Z,6.59
2018-12-10T15:07:47.899Z,6.64
2018-12-10T15:10:16.484Z,6.67
2018-12-10T15:12:44.255Z,6.75
2018-12-10T15:15:12.248Z,6.79
2018-12-10T15:17:40.009Z,6.80
2018-12-10T15:20:12.693Z,6.86
2018-12-10T15:22:40.652Z,6.86
2018-12-10T15:25:09.163Z,6.93
2018-12-10T15:27:37.122Z,6.96
2018-12-10T15:30:07.773Z,7.00
2018-12-10T15:32:35.540Z,6.96
2018-12-10T15:35:03.669Z,6.94
2018-12-10T15:37:31.448Z,6.88
2018-12-10T15:39:59.273Z,6.88
2018-12-10T15:42:27.052Z,6.88
2018-12-10T15:44:54.977Z,6.92
2018-12-10T15:47:22.905Z,6.84
2018-12-10T15:49:50.772Z,6.94
2018-12-10T15:52:18.495Z,7.02
2018-12-10T15:54:46.220Z,7.06
2018-12-10T15:57:14.644Z,7.05
2018-12-10T15:59:42.416Z,7.11
2018-12-10T16:02:10.295Z,7.08
2018-12-10T16:04:38.835Z,7.19
2018-12-10T16:07:06.628Z,7.22
2018-12-10T16:09:34.468Z,7.20
2018-12-10T16:12:02.237Z,7.15
2018-12-10T16:14:30.052Z,7.15
2018-12-10T16:16:57.827Z,7.22
2018-12-10T16:19:25.614Z,7.30
2018-12-10T16:21:53.353Z,7.29
2018-12-10T16:24:21.175Z,7.29
2018-12-10T16:26:49.046Z,7.25
2018-12-10T16:29:16.817Z,7.27
2018-12-10T16:31:44.736Z,7.29
2018-12-10T16:34:12.641Z,7.28
2018-12-10T16:36:41.102Z,7.25
2018-12-10T16:39:09.680Z,7.24
2018-12-10T16:41:37.581Z,7.24
2018-12-10T16:44:05.340Z,7.27
2018-12-10T16:49:13.558Z,7.28
2018-12-10T16:51:41.507Z,7.27
2018-12-10T16:54:09.417Z,7.22
2018-12-10T16:56:37.245Z,7.26
2018-12-10T16:59:05.060Z,7.20
2018-12-10T17:01:32.834Z,7.21
2018-12-10T17:04:00.659Z,7.24
2018-12-10T17:06:28.421Z,7.29
2018-12-10T17:08:56.176Z,7.25
2018-12-10T17:11:23.965Z,7.28
2018-12-10T17:13:52.591Z,7.27
2018-12-10T17:16:20.443Z,7.26
2018-12-10T17:18:48.165Z,7.30
2018-12-10T17:21:15.969Z,7.31
2018-12-10T17:23:43.952Z,7.29
2018-12-10T17:26:11.731Z,7.32
2018-12-10T17:28:39.522Z,7.36
2018-12-10T17:31:07.253Z,7.29
2018-12-10T17:33:34.981Z,7.34
2018-12-10T17:36:02.873Z,7.33
2018-12-10T17:38:31.062Z,7.35
2018-12-10T17:40:58.865Z,7.41
2018-12-10T17:43:27.032Z,7.36
2018-12-10T17:45:54.813Z,7.38
2018-12-10T17:48:23.884Z,7.32
2018-12-10T17:50:51.697Z,7.34
2018-12-10T17:53:20.565Z,7.33
2018-12-10T17:55:49.048Z,7.39
2018-12-10T17:58:16.840Z,7.37
2018-12-10T18:00:45.746Z,7.35
2018-12-10T18:03:13.518Z,7.30
2018-12-10T18:05:41.301Z,7.29
2018-12-10T18:08:09.169Z,7.32
2018-12-10T18:10:37.094Z,7.34
2018-12-10T18:13:04.949Z,7.31
2018-12-10T18:15:33.974Z,7.30
2018-12-10T18:18:01.763Z,7.28
2018-12-10T18:20:29.824Z,7.31
2018-12-10T18:22:57.598Z,7.30
2018-12-10T18:25:25.375Z,7.26
2018-12-10T18:27:53.505Z,7.13
2018-12-10T18:30:21.374Z,7.01
2018-12-10T18:32:49.237Z,7.01
2018-12-10T18:35:17.374Z,6.93
2018-12-10T18:37:45.381Z,6.82
2018-12-10T18:40:13.399Z,6.87
2018-12-10T18:42:41.197Z,7.02
2018-12-10T18:45:12.320Z,6.97
2018-12-10T18:47:40.102Z,6.94
2018-12-10T18:50:08.102Z,6.95
2018-12-10T18:52:35.917Z,6.91
2018-12-10T18:55:04.917Z,6.85
2018-12-10T18:57:32.645Z,6.84
2018-12-10T19:00:00.365Z,6.77
2018-12-10T19:02:28.196Z,6.83
2018-12-10T19:04:56.021Z,6.82
2018-12-10T19:07:23.784Z,6.83
2018-12-10T19:09:51.532Z,6.78
2018-12-10T19:12:19.911Z,6.71
2018-12-10T19:14:48.224Z,6.74
2018-12-10T19:17:15.999Z,6.87
2018-12-10T19:19:43.829Z,6.82
2018-12-10T19:22:11.577Z,6.97
2018-12-10T19:24:39.381Z,6.88
2018-12-10T19:27:07.161Z,6.94
2018-12-10T19:29:34.934Z,6.90
2018-12-10T19:32:02.711Z,6.72
2018-12-10T19:34:30.431Z,6.64
2018-12-10T19:36:59.253Z,6.62
2018-12-10T19:39:27.065Z,6.62
2018-12-10T19:41:54.852Z,6.57
2018-12-10T19:44:22.656Z,6.58
2018-12-10T19:46:50.391Z,6.67
2018-12-10T19:49:18.625Z,6.64
2018-12-10T19:51:46.531Z,6.73
2018-12-10T19:54:15.128Z,6.71
2018-12-10T19:56:43.409Z,6.74
2018-12-10T19:59:11.133Z,6.72
2018-12-10T20:01:38.897Z,6.81
2018-12-10T20:04:06.669Z,6.84
2018-12-10T20:06:38.923Z,6.91
2018-12-10T20:09:08.045Z,6.99
2018-12-10T20:11:36.027Z,7.04
2018-12-10T20:14:04.780Z,7.02
2018-12-10T20:16:32.706Z,6.85
2018-12-10T20:19:00.464Z,6.36
2018-12-10T20:21:28.233Z,6.09
2018-12-10T20:23:57.166Z,6.04
2018-12-10T20:26:24.948Z,6.03
2018-12-10T20:28:52.877Z,6.09
2018-12-10T20:31:20.639Z,6.12
2018-12-10T20:33:48.407Z,6.23
2018-12-10T20:36:16.350Z,6.26
2018-12-10T20:38:44.714Z,6.36
2018-12-10T20:41:12.620Z,6.40
2018-12-10T20:43:40.374Z,6.40
2018-12-10T20:46:08.121Z,6.46
2018-12-10T20:48:37.044Z,6.49
2018-12-10T20:51:06.048Z,6.53
2018-12-10T20:53:33.931Z,6.56
2018-12-10T20:56:01.748Z,6.63
2018-12-10T20:58:29.521Z,6.62
2018-12-10T21:00:57.432Z,6.74
2018-12-10T21:03:25.274Z,6.71
2018-12-10T21:05:58.661Z,6.77
2018-12-10T21:08:26.396Z,6.87
2018-12-10T21:10:54.196Z,6.80
2018-12-10T21:13:21.997Z,6.76
2018-12-10T21:15:49.729Z,6.69
2018-12-10T21:18:17.729Z,6.74
2018-12-10T21:20:45.600Z,6.73
2018-12-10T21:23:13.381Z,6.72
2018-12-10T21:25:41.173Z,6.76
2018-12-10T21:28:08.993Z,6.67
2018-12-10T21:30:36.762Z,6.68
2018-12-10T21:33:04.573Z,6.76
2018-12-10T21:35:32.420Z,6.86
2018-12-10T21:38:00.153Z,6.75
2018-12-10T21:40:27.925Z,6.57
2018-12-10T21:42:55.676Z,6.54
2018-12-10T21:45:23.421Z,6.55
2018-12-10T21:47:51.173Z,6.55
2018-12-10T21:50:19.013Z,6.53
2018-12-10T21:52:46.744Z,6.58
2018-12-10T21:55:16.958Z,6.67
2018-12-10T21:57:44.298Z,6.67
2018-12-10T22:00:12.087Z,6.69
2018-12-10T22:02:39.880Z,6.64
2018-12-10T22:05:07.703Z,6.71
2018-12-10T22:07:35.489Z,6.71
2018-12-10T22:10:04.047Z,6.73
2018-12-10T22:12:31.848Z,6.73
2018-12-10T22:14:59.674Z,6.72
2018-12-10T22:17:27.464Z,6.59
2018-12-10T22:19:55.234Z,6.60
2018-12-10T22:22:22.972Z,6.58
2018-12-10T22:24:50.790Z,6.61
2018-12-10T22:27:18.601Z,6.56
2018-12-10T22:29:46.373Z,6.68
2018-12-10T22:32:14.157Z,6.65
2018-12-10T22:34:41.929Z,6.72
2018-12-10T22:37:09.710Z,6.71
2018-12-10T22:39:37.466Z,6.75
2018-12-10T22:42:05.236Z,6.80
2018-12-10T22:44:32.949Z,6.82
2018-12-10T22:47:00.698Z,6.81
2018-12-10T22:49:28.493Z,6.79
2018-12-10T22:51:56.250Z,6.82
2018-12-10T22:54:23.984Z,6.75
2018-12-10T22:56:51.763Z,6.78
2018-12-10T22:59:19.516Z,6.84
2018-12-10T23:01:48.209Z,6.87
2018-12-10T23:04:15.973Z,6.87
2018-12-10T23:06:43.768Z,6.85
2018-12-10T23:09:11.609Z,6.83
2018-12-10T23:11:39.414Z,6.82
2018-12-10T23:14:07.201Z,6.87
2018-12-10T23:16:35.001Z,6.89
2018-12-10T23:19:02.800Z,6.89
2018-12-10T23:21:30.618Z,6.88
2018-12-10T23:23:58.436Z,6.84
2018-12-10T23:26:26.255Z,6.85
2018-12-10T23:28:54.056Z,6.85
2018-12-10T23:31:21.888Z,6.84
2018-12-10T23:33:49.696Z,6.89
2018-12-10T23:36:17.459Z,6.86
2018-12-10T23:38:45.236Z,6.85
2018-12-10T23:41:13.089Z,6.85
2018-12-10T23:43:40.878Z,6.90
2018-12-10T23:46:08.661Z,6.89
2018-12-10T23:48:36.463Z,6.93
2018-12-10T23:51:04.337Z,6.90
2018-12-10T23:53:32.302Z,6.85
2018-12-10T23:56:01.280Z,6.90
2018-12-10T23:58:29.275Z,6.90
